createdAt,value
2023-04-25T00:01:41.897Z,7.20
2023-04-25T00:04:08.925Z,7.88
2023-04-25T00:06:37.166Z,7.47
2023-04-25T00:09:08.417Z,7.40
2023-04-25T00:11:35.345Z,9.10
2023-04-25T00:14:03.270Z,12.38
2023-04-25T00:16:31.708Z,10.30
2023-04-25T00:18:59.715Z,10.27
2023-04-25T00:21:26.544Z,15.80
2023-04-25T00:23:56.884Z,10.43
2023-04-25T00:26:23.441Z,10.32
2023-04-25T00:28:49.948Z,11.05
2023-04-25T00:31:16.541Z,12.57
2023-04-25T00:33:43.106Z,11.00
2023-04-25T00:36:10.025Z,10.05
2023-04-25T00:38:36.816Z,11.68
2023-04-25T00:41:03.342Z,10.80
2023-04-25T00:43:32.012Z,10.05
2023-04-25T00:46:00.568Z,10.18
2023-04-25T00:48:27.026Z,11.00
2023-04-25T00:50:57.557Z,10.32
2023-04-25T00:53:25.753Z,9.57
2023-04-25T00:55:53.096Z,10.27
2023-04-25T00:58:20.994Z,9.80
2023-04-25T01:00:48.937Z,10.23
2023-04-25T01:03:17.341Z,11.70
2023-04-25T01:05:44.739Z,10.25
2023-04-25T01:08:11.595Z,9.55
2023-04-25T01:10:38.133Z,10.13
2023-04-25T01:13:04.973Z,9.68
2023-04-25T01:15:31.601Z,9.00
2023-04-25T01:17:59.211Z,10.07
2023-04-25T01:20:27.305Z,10.63
2023-04-25T01:22:54.656Z,10.77
2023-04-25T01:25:21.495Z,10.02
2023-04-25T01:27:48.431Z,8.82
2023-04-25T01:30:15.487Z,9.80
2023-04-25T01:32:43.415Z,11.40
2023-04-25T01:35:12.254Z,8.82
2023-04-25T01:37:42.692Z,8.65
2023-04-25T01:40:12.803Z,9.82
2023-04-25T01:42:41.934Z,11.38
2023-04-25T01:45:09.245Z,9.32
2023-04-25T01:47:38.698Z,8.10
2023-04-25T01:50:06.681Z,8.93
2023-04-25T01:52:33.659Z,8.77
2023-04-25T01:55:02.553Z,10.35
2023-04-25T01:57:31.692Z,9.32
2023-04-25T02:00:01.595Z,10.32
2023-04-25T02:02:45.986Z,8.35
2023-04-25T02:05:37.678Z,9.57
2023-04-25T02:08:07.834Z,8.93
2023-04-25T02:10:35.501Z,8.00
2023-04-25T02:13:09.806Z,9.07
2023-04-25T02:15:56.686Z,9.25
2023-04-25T02:18:23.211Z,8.68
2023-04-25T02:20:49.749Z,9.13
2023-04-25T02:23:20.120Z,6.93
2023-04-25T02:25:46.757Z,6.65
2023-04-25T02:28:14.071Z,8.68
2023-04-25T02:30:40.893Z,6.47
2023-04-25T02:33:07.452Z,6.57
2023-04-25T02:35:33.942Z,5.82
2023-04-25T02:38:00.611Z,6.35
2023-04-25T02:40:27.212Z,6.30
2023-04-25T02:42:54.559Z,5.13
2023-04-25T02:45:21.084Z,6.10
2023-04-25T02:47:47.571Z,5.53
2023-04-25T02:50:14.092Z,5.72
2023-04-25T02:52:41.123Z,6.63
2023-04-25T02:55:15.618Z,6.85
2023-04-25T02:57:43.439Z,5.45
2023-04-25T03:00:15.228Z,7.22
2023-04-25T03:02:41.862Z,6.43
2023-04-25T03:05:08.477Z,6.35
2023-04-25T03:07:36.243Z,7.55
2023-04-25T03:10:03.315Z,6.15
2023-04-25T03:12:31.569Z,7.00
2023-04-25T03:14:58.166Z,8.02
2023-04-25T03:17:24.857Z,7.72
2023-04-25T03:19:51.413Z,10.23
2023-04-25T03:22:18.088Z,5.82
2023-04-25T03:24:44.617Z,6.03
2023-04-25T03:27:11.151Z,5.93
2023-04-25T03:29:37.714Z,9.10
2023-04-25T03:32:05.623Z,8.32
2023-04-25T03:34:32.117Z,6.88
2023-04-25T03:36:59.057Z,7.97
2023-04-25T03:39:26.073Z,7.88
2023-04-25T03:41:53.389Z,8.25
2023-04-25T03:44:20.892Z,8.73
2023-04-25T03:46:47.937Z,8.82
2023-04-25T03:49:17.012Z,7.93
2023-04-25T03:52:01.300Z,8.35
2023-04-25T03:54:30.823Z,10.13
2023-04-25T03:57:05.678Z,9.27
2023-04-25T03:59:35.190Z,8.30
2023-04-25T04:02:02.411Z,10.05
2023-04-25T04:04:29.703Z,10.85
2023-04-25T04:06:56.732Z,10.27
2023-04-25T04:09:27.059Z,12.20
2023-04-25T04:11:54.523Z,13.02
2023-04-25T04:14:21.075Z,11.10
2023-04-25T04:16:49.388Z,12.57
2023-04-25T04:19:15.974Z,11.23
2023-04-25T04:21:48.046Z,10.10
2023-04-25T04:24:15.923Z,12.68
2023-04-25T04:26:53.945Z,12.43
2023-04-25T04:29:30.321Z,10.63
2023-04-25T04:32:02.098Z,12.13
2023-04-25T04:34:29.894Z,10.20
2023-04-25T04:36:57.097Z,13.13
2023-04-25T04:39:23.728Z,11.48
2023-04-25T04:42:22.651Z,9.80
2023-04-25T04:45:17.034Z,12.50
2023-04-25T04:47:56.314Z,11.27
2023-04-25T04:50:54.904Z,16.48
2023-04-25T04:53:42.810Z,13.45
2023-04-25T04:56:17.725Z,13.38
2023-04-25T04:58:46.823Z,12.30
2023-04-25T05:01:28.291Z,18.00
2023-04-25T05:04:02.038Z,13.60
2023-04-25T05:06:48.591Z,12.55
2023-04-25T05:09:35.817Z,11.93
2023-04-25T05:12:21.047Z,14.48
2023-04-25T05:14:47.519Z,14.88
2023-04-25T05:17:31.996Z,11.32
2023-04-25T05:20:08.313Z,12.82
2023-04-25T05:22:50.412Z,11.63
2023-04-25T05:25:27.602Z,15.75
2023-04-25T05:28:06.814Z,14.23
2023-04-25T05:30:45.773Z,13.90
2023-04-25T05:33:18.361Z,14.25
2023-04-25T05:35:46.033Z,13.52
2023-04-25T05:38:12.531Z,14.90
2023-04-25T05:40:57.491Z,14.43
2023-04-25T05:43:48.217Z,12.98
2023-04-25T05:46:28.320Z,15.95
2023-04-25T05:49:21.953Z,13.90
2023-04-25T05:51:57.451Z,13.55
2023-04-25T05:54:36.906Z,16.50
2023-04-25T05:57:04.268Z,14.63
2023-04-25T05:59:31.136Z,15.52
2023-04-25T06:01:58.211Z,17.35
2023-04-25T06:04:24.931Z,18.73
2023-04-25T06:06:51.739Z,17.98
2023-04-25T06:09:18.280Z,16.83
2023-04-25T06:11:44.759Z,19.63
2023-04-25T06:14:11.305Z,22.73
2023-04-25T06:16:42.744Z,18.48
2023-04-25T06:19:09.359Z,19.60
2023-04-25T06:21:35.930Z,21.55
2023-04-25T06:24:02.727Z,21.88
2023-04-25T06:26:29.449Z,20.67
2023-04-25T06:28:55.971Z,22.55
2023-04-25T06:31:22.749Z,19.60
2023-04-25T06:33:50.904Z,19.75
2023-04-25T06:36:17.598Z,19.13
2023-04-25T06:38:47.704Z,21.65
2023-04-25T06:41:14.859Z,21.98
2023-04-25T06:43:41.386Z,23.38
2023-04-25T06:46:22.836Z,23.63
2023-04-25T06:48:50.281Z,20.60
2023-04-25T06:51:18.726Z,24.05
2023-04-25T06:53:46.448Z,23.50
2023-04-25T06:56:24.459Z,22.30
2023-04-25T06:58:57.698Z,24.10
2023-04-25T07:01:29.833Z,21.55
2023-04-25T07:03:57.630Z,22.23
2023-04-25T07:06:26.841Z,22.80
2023-04-25T07:08:54.028Z,19.45
2023-04-25T07:11:20.846Z,18.95
2023-04-25T07:13:47.323Z,21.17
2023-04-25T07:16:13.893Z,20.58
2023-04-25T07:18:40.952Z,20.50
2023-04-25T07:21:07.854Z,19.77
2023-04-25T07:23:36.081Z,19.13
2023-04-25T07:26:09.013Z,16.33
2023-04-25T07:28:36.356Z,18.05
2023-04-25T07:31:03.605Z,18.25
2023-04-25T07:33:32.260Z,18.77
2023-04-25T07:35:59.172Z,16.98
2023-04-25T07:38:25.824Z,14.07
2023-04-25T07:40:52.406Z,16.55
2023-04-25T07:43:18.950Z,18.00
2023-04-25T07:45:53.214Z,16.75
2023-04-25T07:48:20.763Z,17.05
2023-04-25T07:50:49.653Z,16.70
2023-04-25T07:53:18.866Z,15.48
2023-04-25T07:55:53.699Z,15.98
2023-04-25T07:58:22.249Z,14.93
2023-04-25T08:00:51.896Z,14.75
2023-04-25T08:03:30.248Z,16.23
2023-04-25T08:05:58.498Z,14.70
2023-04-25T08:08:28.096Z,13.48
2023-04-25T08:10:54.715Z,16.33
2023-04-25T08:13:21.740Z,11.25
2023-04-25T08:15:48.553Z,16.70
2023-04-25T08:18:17.045Z,15.05
2023-04-25T08:20:45.043Z,11.35
2023-04-25T08:23:13.462Z,12.55
2023-04-25T08:26:00.301Z,14.45
2023-04-25T08:28:28.547Z,14.48
2023-04-25T08:30:57.540Z,13.77
2023-04-25T08:33:32.190Z,16.63
2023-04-25T08:36:04.491Z,15.20
2023-04-25T08:38:32.484Z,15.38
2023-04-25T08:41:01.862Z,15.18
2023-04-25T08:43:30.668Z,17.27
2023-04-25T08:46:01.201Z,16.67
2023-04-25T08:48:46.425Z,13.15
2023-04-25T08:51:25.674Z,18.70
2023-04-25T08:53:54.127Z,14.45
2023-04-25T08:56:25.065Z,16.20
2023-04-25T08:58:52.238Z,16.85
2023-04-25T09:01:19.563Z,16.80
2023-04-25T09:03:52.612Z,17.70
2023-04-25T09:06:20.642Z,14.52
2023-04-25T09:08:51.310Z,16.92
2023-04-25T09:11:19.625Z,17.30
2023-04-25T09:13:47.188Z,15.82
2023-04-25T09:16:56.566Z,16.73
2023-04-25T09:19:42.183Z,13.20
2023-04-25T09:22:28.745Z,15.48
2023-04-25T09:24:55.312Z,15.82
2023-04-25T09:27:27.718Z,13.38
2023-04-25T09:30:03.565Z,15.70
2023-04-25T09:32:48.033Z,16.02
2023-04-25T09:35:26.326Z,14.43
2023-04-25T09:37:54.301Z,15.50
2023-04-25T09:40:46.250Z,12.48
2023-04-25T09:43:23.154Z,13.65
2023-04-25T09:45:54.452Z,18.98
2023-04-25T09:48:22.945Z,14.18
2023-04-25T09:51:06.384Z,14.40
2023-04-25T09:53:36.284Z,11.82
2023-04-25T09:56:13.748Z,11.38
2023-04-25T09:58:41.523Z,13.07
2023-04-25T10:01:12.026Z,12.82
2023-04-25T10:03:53.199Z,13.07
2023-04-25T10:06:37.608Z,10.55
2023-04-25T10:09:05.407Z,12.88
2023-04-25T10:11:32.993Z,11.35
2023-04-25T10:14:01.095Z,13.20
2023-04-25T10:16:28.933Z,12.20
2023-04-25T10:18:56.506Z,10.02
2023-04-25T10:21:23.031Z,12.23
2023-04-25T10:23:50.761Z,8.43
2023-04-25T10:26:18.324Z,12.05
2023-04-25T10:28:59.360Z,9.73
2023-04-25T10:31:26.736Z,9.82
2023-04-25T10:33:54.627Z,13.52
2023-04-25T10:36:25.572Z,10.27
2023-04-25T10:38:53.524Z,15.10
2023-04-25T10:41:23.719Z,12.35
2023-04-25T10:43:52.053Z,13.68
2023-04-25T10:46:20.419Z,9.20
2023-04-25T10:48:53.851Z,5.05
2023-04-25T10:51:34.623Z,10.40
2023-04-25T10:54:08.578Z,11.20
2023-04-25T10:56:40.656Z,10.20
2023-04-25T10:59:12.548Z,6.50
2023-04-25T11:01:45.074Z,7.78
2023-04-25T11:04:25.312Z,8.60
2023-04-25T11:07:10.570Z,5.57
2023-04-25T11:09:39.900Z,6.65
2023-04-25T11:12:09.397Z,6.90
2023-04-25T11:14:36.974Z,4.28
2023-04-25T11:17:03.704Z,5.43
2023-04-25T11:19:30.955Z,4.88
2023-04-25T11:22:01.255Z,6.75
2023-04-25T11:24:33.035Z,4.32
2023-04-25T11:27:00.769Z,4.32
2023-04-25T11:29:28.038Z,5.95
2023-04-25T11:31:58.921Z,6.40
2023-04-25T11:34:26.436Z,6.00
2023-04-25T11:36:54.115Z,7.40
2023-04-25T11:39:21.237Z,8.20
2023-04-25T11:41:48.492Z,6.82
2023-04-25T11:44:19.023Z,5.03
2023-04-25T11:46:46.631Z,7.75
2023-04-25T11:49:14.310Z,4.95
2023-04-25T11:51:49.759Z,6.18
2023-04-25T11:54:16.609Z,6.90
2023-04-25T11:56:44.688Z,6.85
2023-04-25T11:59:12.650Z,5.30
2023-04-25T12:01:49.100Z,4.03
2023-04-25T12:04:15.729Z,8.27
2023-04-25T12:06:44.219Z,4.38
2023-04-25T12:09:14.003Z,4.55
2023-04-25T12:11:44.596Z,4.68
2023-04-25T12:14:12.147Z,4.75
2023-04-25T12:16:45.945Z,4.35
2023-04-25T12:21:56.694Z,4.93
2023-04-25T12:24:27.023Z,5.60
2023-04-25T12:27:04.585Z,3.78
2023-04-25T12:29:41.974Z,3.97
2023-04-25T12:32:14.824Z,4.80
2023-04-25T12:34:41.618Z,6.35
2023-04-25T12:37:08.481Z,7.15
2023-04-25T12:39:35.288Z,5.13
2023-04-25T12:42:01.941Z,4.88
2023-04-25T12:44:28.531Z,4.78
2023-04-25T12:46:56.174Z,5.97
2023-04-25T12:49:23.321Z,3.63
2023-04-25T12:51:50.170Z,12.63
2023-04-25T12:54:16.880Z,4.05
2023-04-25T12:56:43.491Z,5.93
2023-04-25T12:59:10.427Z,5.68
2023-04-25T13:01:37.484Z,5.85
2023-04-25T13:04:04.386Z,4.68
2023-04-25T13:06:31.917Z,5.20
2023-04-25T13:08:58.646Z,4.68
2023-04-25T13:11:25.219Z,4.05
2023-04-25T13:13:52.074Z,5.22
2023-04-25T13:16:21.663Z,4.75
2023-04-25T13:18:48.344Z,6.90
2023-04-25T13:21:15.261Z,6.00
2023-04-25T13:23:43.730Z,6.00
2023-04-25T13:26:10.423Z,7.75
2023-04-25T13:28:37.003Z,6.32
2023-04-25T13:31:03.486Z,4.80
2023-04-25T13:33:30.005Z,7.28
2023-04-25T13:35:58.070Z,5.95
2023-04-25T13:38:26.363Z,4.95
2023-04-25T13:40:53.675Z,7.72
2023-04-25T13:43:22.715Z,4.90
2023-04-25T13:45:50.080Z,8.25
2023-04-25T13:48:17.043Z,8.63
2023-04-25T13:50:43.595Z,4.28
2023-04-25T13:53:10.152Z,4.63
2023-04-25T13:55:39.803Z,6.05
2023-04-25T13:58:08.850Z,5.95
2023-04-25T14:00:39.500Z,6.25
2023-04-25T14:03:08.384Z,6.65
2023-04-25T14:05:39.273Z,6.38
2023-04-25T14:08:10.178Z,4.53
2023-04-25T14:10:37.829Z,3.83
2023-04-25T14:13:05.492Z,18.08
2023-04-25T14:15:35.557Z,9.43
2023-04-25T14:18:02.598Z,7.45
2023-04-25T14:20:29.980Z,8.15
2023-04-25T14:22:58.097Z,9.85
2023-04-25T14:25:26.260Z,7.13
2023-04-25T14:27:52.801Z,4.80
2023-04-25T14:30:20.617Z,4.70
2023-04-25T14:32:47.556Z,7.22
2023-04-25T14:35:14.218Z,7.05
2023-04-25T14:37:40.902Z,7.00
2023-04-25T14:40:11.253Z,6.35
2023-04-25T14:42:38.167Z,7.28
2023-04-25T14:45:07.303Z,8.25
2023-04-25T14:47:34.102Z,6.00
2023-04-25T14:50:00.674Z,6.20
2023-04-25T14:52:27.234Z,6.15
2023-04-25T14:54:54.029Z,7.65
2023-04-25T14:57:20.621Z,5.97
2023-04-25T14:59:47.315Z,7.25
2023-04-25T15:02:14.041Z,9.27
2023-04-25T15:04:40.698Z,5.32
2023-04-25T15:07:07.240Z,5.07
2023-04-25T15:09:33.797Z,5.63
2023-04-25T15:12:00.352Z,7.95
2023-04-25T15:14:27.060Z,4.90
2023-04-25T15:16:53.705Z,6.03
2023-04-25T15:19:20.258Z,7.35
2023-04-25T15:21:47.874Z,4.07
2023-04-25T15:24:16.068Z,7.80
2023-04-25T15:26:42.633Z,3.63
2023-04-25T15:29:09.181Z,4.38
2023-04-25T15:31:35.814Z,6.47
2023-04-25T15:34:02.487Z,10.82
2023-04-25T15:36:29.035Z,3.63
2023-04-25T15:38:56.701Z,6.38
2023-04-25T15:41:23.288Z,5.93
2023-04-25T15:43:50.153Z,6.45
2023-04-25T15:46:16.912Z,7.75
2023-04-25T15:48:43.597Z,6.15
2023-04-25T15:51:10.547Z,5.57
2023-04-25T15:53:37.353Z,5.13
2023-04-25T15:56:04.645Z,5.25
2023-04-25T15:58:31.232Z,5.00
2023-04-25T16:00:57.845Z,6.38
2023-04-25T16:03:24.640Z,4.22
2023-04-25T16:05:51.296Z,5.25
2023-04-25T16:08:17.847Z,3.75
2023-04-25T16:10:44.738Z,5.85
2023-04-25T16:13:11.746Z,5.38
2023-04-25T16:15:38.712Z,8.73
2023-04-25T16:18:05.499Z,5.57
2023-04-25T16:20:33.648Z,6.90
2023-04-25T16:23:00.341Z,4.97
2023-04-25T16:25:27.572Z,4.85
2023-04-25T16:27:54.088Z,8.20
2023-04-25T16:30:20.678Z,6.43
2023-04-25T16:32:47.287Z,11.07
2023-04-25T16:35:13.874Z,3.88
2023-04-25T16:37:40.362Z,5.30
2023-04-25T16:40:10.240Z,6.07
2023-04-25T16:42:37.261Z,6.15
2023-04-25T16:45:05.162Z,8.25
2023-04-25T16:47:32.319Z,7.30
2023-04-25T16:50:01.495Z,5.68
2023-04-25T16:52:28.031Z,6.05
2023-04-25T16:54:54.628Z,5.18
2023-04-25T16:57:21.214Z,7.18
2023-04-25T16:59:47.851Z,6.10
2023-04-25T17:02:15.068Z,7.65
2023-04-25T17:04:41.790Z,5.88
2023-04-25T17:07:09.146Z,7.63
2023-04-25T17:09:36.265Z,6.05
2023-04-25T17:12:03.963Z,6.90
2023-04-25T17:14:32.307Z,8.23
2023-04-25T17:16:59.081Z,6.68
2023-04-25T17:19:26.106Z,5.55
2023-04-25T17:21:52.676Z,6.20
2023-04-25T17:24:21.252Z,14.13
2023-04-25T17:26:49.026Z,7.07
2023-04-25T17:29:15.852Z,8.90
2023-04-25T17:31:42.670Z,5.88
2023-04-25T17:34:09.830Z,8.88
2023-04-25T17:36:36.583Z,4.60
2023-04-25T17:39:05.996Z,8.85
2023-04-25T17:41:32.539Z,3.60
2023-04-25T17:43:59.044Z,6.10
2023-04-25T17:46:27.437Z,6.80
2023-04-25T17:48:54.414Z,6.55
2023-04-25T17:51:21.254Z,6.75
2023-04-25T17:53:48.005Z,8.68
2023-04-25T17:56:25.949Z,7.72
2023-04-25T17:58:53.768Z,6.82
2023-04-25T18:01:20.641Z,6.75
2023-04-25T18:03:49.196Z,4.25
2023-04-25T18:06:17.919Z,7.47
2023-04-25T18:08:44.780Z,4.13
2023-04-25T18:11:12.082Z,5.53
2023-04-25T18:13:39.168Z,7.22
2023-04-25T18:16:06.145Z,17.85
2023-04-25T18:18:36.817Z,11.93
2023-04-25T18:21:05.202Z,11.98
2023-04-25T18:23:34.075Z,7.90
2023-04-25T18:26:01.532Z,3.28
2023-04-25T18:28:28.420Z,6.43
2023-04-25T18:30:54.949Z,8.48
2023-04-25T18:33:22.371Z,5.97
2023-04-25T18:35:58.796Z,6.00
2023-04-25T18:41:01.365Z,4.32
2023-04-25T18:43:32.536Z,6.15
2023-04-25T18:45:59.095Z,5.68
2023-04-25T18:48:26.329Z,14.30
2023-04-25T18:50:52.987Z,11.18
2023-04-25T18:53:19.465Z,9.32
2023-04-25T18:55:45.927Z,6.97
2023-04-25T18:58:12.489Z,3.78
2023-04-25T19:00:40.023Z,6.22
2023-04-25T19:03:06.641Z,5.00
2023-04-25T19:05:33.285Z,5.22
2023-04-25T19:07:59.815Z,7.75
2023-04-25T19:10:27.000Z,7.70
2023-04-25T19:12:53.887Z,6.88
2023-04-25T19:15:20.365Z,4.57
2023-04-25T19:17:46.895Z,8.48
2023-04-25T19:20:13.429Z,9.80
2023-04-25T19:22:39.969Z,9.05
2023-04-25T19:25:10.759Z,8.65
2023-04-25T19:27:37.624Z,6.20
2023-04-25T19:30:08.045Z,4.53
2023-04-25T19:32:35.949Z,8.88
2023-04-25T19:35:03.953Z,6.18
2023-04-25T19:37:30.825Z,6.82
2023-04-25T19:39:57.551Z,7.88
2023-04-25T19:42:24.036Z,5.50
2023-04-25T19:44:52.040Z,8.48
2023-04-25T19:47:18.576Z,12.13
2023-04-25T19:49:45.088Z,14.60
2023-04-25T19:52:14.897Z,15.73
2023-04-25T19:54:41.985Z,6.38
2023-04-25T19:57:08.913Z,9.38
2023-04-25T19:59:35.436Z,8.52
2023-04-25T20:02:02.106Z,5.32
2023-04-25T20:04:28.670Z,7.88
2023-04-25T20:06:56.101Z,8.90
2023-04-25T20:09:23.283Z,5.28
2023-04-25T20:11:49.876Z,7.60
2023-04-25T20:14:16.480Z,4.05
2023-04-25T20:16:43.041Z,7.13
2023-04-25T20:19:09.549Z,9.07
2023-04-25T20:21:36.213Z,4.85
2023-04-25T20:24:02.919Z,7.78
2023-04-25T20:26:33.766Z,6.57
2023-04-25T20:29:01.770Z,5.95
2023-04-25T20:31:30.808Z,6.38
2023-04-25T20:33:58.988Z,7.65
2023-04-25T20:36:27.417Z,4.90
2023-04-25T20:38:54.506Z,6.88
2023-04-25T20:41:21.348Z,9.18
2023-04-25T20:43:48.158Z,5.88
2023-04-25T20:46:15.913Z,5.45
2023-04-25T20:48:42.594Z,8.73
2023-04-25T20:51:09.180Z,9.93
2023-04-25T20:53:35.683Z,4.57
2023-04-25T20:56:02.681Z,8.07
2023-04-25T20:58:29.213Z,8.40
2023-04-25T21:00:56.492Z,6.80
2023-04-25T21:03:23.331Z,10.07
2023-04-25T21:05:49.934Z,6.72
2023-04-25T21:08:17.076Z,10.27
2023-04-25T21:10:43.620Z,6.95
2023-04-25T21:13:10.127Z,9.48
2023-04-25T21:15:36.635Z,10.63
2023-04-25T21:18:03.141Z,6.30
2023-04-25T21:20:29.640Z,7.00
2023-04-25T21:22:56.152Z,7.18
2023-04-25T21:25:29.241Z,7.15
2023-04-25T21:27:56.229Z,6.13
2023-04-25T21:30:24.124Z,6.70
2023-04-25T21:32:51.902Z,7.70
2023-04-25T21:35:20.113Z,10.45
2023-04-25T21:37:47.052Z,6.20
2023-04-25T21:40:14.360Z,7.63
2023-04-25T21:42:49.835Z,11.93
2023-04-25T21:45:16.339Z,8.00
2023-04-25T21:47:43.228Z,6.68
2023-04-25T21:50:10.121Z,7.90
2023-04-25T21:52:37.355Z,9.25
2023-04-25T21:55:04.135Z,9.98
2023-04-25T21:57:30.644Z,9.25
2023-04-25T21:59:57.199Z,4.55
2023-04-25T22:02:24.653Z,16.35
2023-04-25T22:04:52.261Z,7.10
2023-04-25T22:07:18.833Z,6.63
2023-04-25T22:09:54.370Z,7.88
2023-04-25T22:12:23.298Z,8.75
2023-04-25T22:14:50.214Z,7.43
2023-04-25T22:17:17.591Z,10.38
2023-04-25T22:19:44.569Z,6.20
2023-04-25T22:22:11.402Z,6.40
2023-04-25T22:24:38.750Z,7.55
2023-04-25T22:27:05.323Z,7.32
2023-04-25T22:29:31.780Z,11.30
2023-04-25T22:31:58.453Z,8.80
2023-04-25T22:34:25.012Z,8.68
2023-04-25T22:36:51.457Z,14.02
2023-04-25T22:39:19.218Z,10.85
2023-04-25T22:41:46.353Z,7.63
2023-04-25T22:44:13.122Z,11.05
2023-04-25T22:46:39.708Z,9.70
2023-04-25T22:49:06.300Z,14.30
2023-04-25T22:51:33.156Z,7.18
2023-04-25T22:54:00.537Z,10.25
2023-04-25T22:56:29.990Z,5.47
2023-04-25T22:58:56.960Z,14.02
2023-04-25T23:01:23.599Z,7.80
2023-04-25T23:03:50.365Z,5.00
2023-04-25T23:06:17.093Z,9.30
2023-04-25T23:08:43.761Z,6.90
2023-04-25T23:11:10.243Z,8.63
2023-04-25T23:13:37.113Z,8.20
2023-04-25T23:16:08.900Z,7.35
2023-04-25T23:18:36.261Z,8.63
2023-04-25T23:21:03.892Z,6.43
2023-04-25T23:23:30.499Z,8.55
2023-04-25T23:25:57.778Z,7.82
2023-04-25T23:28:24.526Z,8.35
2023-04-25T23:30:51.108Z,8.63
2023-04-25T23:33:17.604Z,9.38
2023-04-25T23:35:44.089Z,7.45
2023-04-25T23:38:10.677Z,18.33
2023-04-25T23:40:37.175Z,6.22
2023-04-25T23:43:03.730Z,9.30
2023-04-25T23:45:30.396Z,11.20
2023-04-25T23:47:57.146Z,5.38
2023-04-25T23:50:24.330Z,11.07
2023-04-25T23:52:50.817Z,9.77
2023-04-25T23:55:17.320Z,7.93
2023-04-25T23:57:44.343Z,7.80
